sensor_id;sensor_type;location;lat;lon;timestamp;P1;durP1;ratioP1;P2;durP2;ratioP2
23720;SDS011;42950;52.134;5.578;2023-05-27T00:00:08;16.30;;;4.13;;
23720;SDS011;42950;52.134;5.578;2023-05-27T00:02:34;14.95;;;3.92;;
23720;SDS011;42950;52.134;5.578;2023-05-27T00:05:00;16.00;;;4.88;;
23720;SDS011;42950;52.134;5.578;2023-05-27T00:07:26;16.92;;;4.18;;
23720;SDS011;42950;52.134;5.578;2023-05-27T00:09:53;15.05;;;4.63;;
23720;SDS011;42950;52.134;5.578;2023-05-27T00:12:19;13.10;;;3.83;;
23720;SDS011;42950;52.134;5.578;2023-05-27T00:14:45;13.73;;;4.18;;
23720;SDS011;42950;52.134;5.578;2023-05-27T00:17:11;16.77;;;4.47;;
23720;SDS011;42950;52.134;5.578;2023-05-27T00:19:39;12.63;;;4.13;;
23720;SDS011;42950;52.134;5.578;2023-05-27T00:22:05;14.82;;;4.25;;
23720;SDS011;42950;52.134;5.578;2023-05-27T00:24:33;18.33;;;5.15;;
23720;SDS011;42950;52.134;5.578;2023-05-27T00:27:00;17.95;;;4.32;;
23720;SDS011;42950;52.134;5.578;2023-05-27T00:29:27;12.95;;;4.68;;
23720;SDS011;42950;52.134;5.578;2023-05-27T00:31:53;14.88;;;4.45;;
23720;SDS011;42950;52.134;5.578;2023-05-27T00:34:19;14.70;;;4.18;;
23720;SDS011;42950;52.134;5.578;2023-05-27T00:36:44;18.70;;;4.28;;
23720;SDS011;42950;52.134;5.578;2023-05-27T00:39:10;19.98;;;4.40;;
23720;SDS011;42950;52.134;5.578;2023-05-27T00:41:37;13.88;;;3.70;;
23720;SDS011;42950;52.134;5.578;2023-05-27T00:44:03;15.65;;;3.90;;
23720;SDS011;42950;52.134;5.578;2023-05-27T00:46:31;13.77;;;4.60;;
23720;SDS011;42950;52.134;5.578;2023-05-27T00:51:25;17.60;;;4.45;;
23720;SDS011;42950;52.134;5.578;2023-05-27T00:53:51;13.48;;;4.03;;
23720;SDS011;42950;52.134;5.578;2023-05-27T00:56:16;15.40;;;3.70;;
23720;SDS011;42950;52.134;5.578;2023-05-27T00:58:42;13.80;;;3.63;;
23720;SDS011;42950;52.134;5.578;2023-05-27T01:01:08;20.63;;;4.40;;
23720;SDS011;42950;52.134;5.578;2023-05-27T01:03:35;17.52;;;4.40;;
23720;SDS011;42950;52.134;5.578;2023-05-27T01:08:51;13.95;;;4.13;;
23720;SDS011;42950;52.134;5.578;2023-05-27T01:11:27;16.33;;;4.15;;
23720;SDS011;42950;52.134;5.578;2023-05-27T01:14:02;14.13;;;4.28;;
23720;SDS011;42950;52.134;5.578;2023-05-27T01:16:34;17.25;;;4.13;;
23720;SDS011;42950;52.134;5.578;2023-05-27T01:19:06;12.57;;;3.70;;
23720;SDS011;42950;52.134;5.578;2023-05-27T01:21:37;16.33;;;4.10;;
23720;SDS011;42950;52.134;5.578;2023-05-27T01:24:05;10.52;;;3.83;;
23720;SDS011;42950;52.134;5.578;2023-05-27T01:26:31;14.63;;;4.28;;
23720;SDS011;42950;52.134;5.578;2023-05-27T01:28:57;13.98;;;4.18;;
23720;SDS011;42950;52.134;5.578;2023-05-27T01:31:30;13.80;;;3.88;;
23720;SDS011;42950;52.134;5.578;2023-05-27T01:34:06;16.25;;;4.60;;
23720;SDS011;42950;52.134;5.578;2023-05-27T01:36:36;18.00;;;4.85;;
23720;SDS011;42950;52.134;5.578;2023-05-27T01:39:05;16.45;;;4.47;;
23720;SDS011;42950;52.134;5.578;2023-05-27T01:41:35;18.73;;;5.10;;
23720;SDS011;42950;52.134;5.578;2023-05-27T01:44:01;16.98;;;4.32;;
23720;SDS011;42950;52.134;5.578;2023-05-27T01:46:28;18.55;;;4.13;;
23720;SDS011;42950;52.134;5.578;2023-05-27T01:48:54;15.35;;;4.57;;
23720;SDS011;42950;52.134;5.578;2023-05-27T01:51:20;13.30;;;4.47;;
23720;SDS011;42950;52.134;5.578;2023-05-27T01:53:47;13.50;;;4.50;;
23720;SDS011;42950;52.134;5.578;2023-05-27T01:56:12;18.35;;;4.82;;
23720;SDS011;42950;52.134;5.578;2023-05-27T01:58:38;15.07;;;4.22;;
23720;SDS011;42950;52.134;5.578;2023-05-27T02:01:03;15.45;;;4.60;;
23720;SDS011;42950;52.134;5.578;2023-05-27T02:03:29;16.65;;;4.95;;
23720;SDS011;42950;52.134;5.578;2023-05-27T02:05:55;17.10;;;4.25;;
23720;SDS011;42950;52.134;5.578;2023-05-27T02:08:20;13.10;;;4.60;;
23720;SDS011;42950;52.134;5.578;2023-05-27T02:10:47;18.08;;;5.10;;
23720;SDS011;42950;52.134;5.578;2023-05-27T02:13:13;18.23;;;4.85;;
23720;SDS011;42950;52.134;5.578;2023-05-27T02:15:38;16.58;;;4.55;;
23720;SDS011;42950;52.134;5.578;2023-05-27T02:18:04;22.38;;;4.60;;
23720;SDS011;42950;52.134;5.578;2023-05-27T02:20:30;17.30;;;4.68;;
23720;SDS011;42950;52.134;5.578;2023-05-27T02:22:56;20.50;;;5.05;;
23720;SDS011;42950;52.134;5.578;2023-05-27T02:25:22;21.45;;;4.60;;
23720;SDS011;42950;52.134;5.578;2023-05-27T02:27:48;18.45;;;4.75;;
23720;SDS011;42950;52.134;5.578;2023-05-27T02:30:16;22.00;;;5.28;;
23720;SDS011;42950;52.134;5.578;2023-05-27T02:32:43;19.00;;;4.90;;
23720;SDS011;42950;52.134;5.578;2023-05-27T02:35:10;19.75;;;5.07;;
23720;SDS011;42950;52.134;5.578;2023-05-27T02:37:38;15.95;;;4.80;;
23720;SDS011;42950;52.134;5.578;2023-05-27T02:40:04;21.88;;;4.78;;
23720;SDS011;42950;52.134;5.578;2023-05-27T02:42:33;15.75;;;4.70;;
23720;SDS011;42950;52.134;5.578;2023-05-27T02:44:58;16.10;;;4.75;;
23720;SDS011;42950;52.134;5.578;2023-05-27T02:47:24;15.18;;;3.85;;
23720;SDS011;42950;52.134;5.578;2023-05-27T02:49:51;15.50;;;4.85;;
23720;SDS011;42950;52.134;5.578;2023-05-27T02:52:17;14.27;;;4.03;;
23720;SDS011;42950;52.134;5.578;2023-05-27T02:54:43;15.60;;;4.75;;
23720;SDS011;42950;52.134;5.578;2023-05-27T02:57:10;13.80;;;4.80;;
23720;SDS011;42950;52.134;5.578;2023-05-27T02:59:37;13.20;;;4.50;;
23720;SDS011;42950;52.134;5.578;2023-05-27T03:02:03;15.95;;;4.20;;
23720;SDS011;42950;52.134;5.578;2023-05-27T03:04:29;15.68;;;4.90;;
23720;SDS011;42950;52.134;5.578;2023-05-27T03:06:55;13.00;;;4.63;;
23720;SDS011;42950;52.134;5.578;2023-05-27T03:09:21;16.38;;;4.53;;
23720;SDS011;42950;52.134;5.578;2023-05-27T03:11:46;19.58;;;5.15;;
23720;SDS011;42950;52.134;5.578;2023-05-27T03:14:12;18.58;;;5.10;;
23720;SDS011;42950;52.134;5.578;2023-05-27T03:16:38;18.00;;;5.22;;
23720;SDS011;42950;52.134;5.578;2023-05-27T03:19:03;17.58;;;4.68;;
23720;SDS011;42950;52.134;5.578;2023-05-27T03:21:29;17.23;;;4.63;;
23720;SDS011;42950;52.134;5.578;2023-05-27T03:23:55;16.05;;;4.80;;
23720;SDS011;42950;52.134;5.578;2023-05-27T03:26:21;16.08;;;4.72;;
23720;SDS011;42950;52.134;5.578;2023-05-27T03:28:47;20.10;;;5.10;;
23720;SDS011;42950;52.134;5.578;2023-05-27T03:31:12;19.02;;;5.40;;
23720;SDS011;42950;52.134;5.578;2023-05-27T03:33:38;29.70;;;5.72;;
23720;SDS011;42950;52.134;5.578;2023-05-27T03:36:04;21.83;;;5.78;;
23720;SDS011;42950;52.134;5.578;2023-05-27T03:38:30;21.95;;;5.57;;
23720;SDS011;42950;52.134;5.578;2023-05-27T03:40:56;14.82;;;5.60;;
23720;SDS011;42950;52.134;5.578;2023-05-27T03:43:23;15.93;;;5.30;;
23720;SDS011;42950;52.134;5.578;2023-05-27T03:45:48;27.38;;;5.93;;
23720;SDS011;42950;52.134;5.578;2023-05-27T03:48:14;16.70;;;5.15;;
23720;SDS011;42950;52.134;5.578;2023-05-27T03:50:42;17.83;;;5.30;;
23720;SDS011;42950;52.134;5.578;2023-05-27T03:53:07;15.93;;;4.95;;
23720;SDS011;42950;52.134;5.578;2023-05-27T03:55:33;16.02;;;5.10;;
23720;SDS011;42950;52.134;5.578;2023-05-27T03:57:59;18.38;;;5.68;;
23720;SDS011;42950;52.134;5.578;2023-05-27T04:00:25;15.05;;;4.53;;
23720;SDS011;42950;52.134;5.578;2023-05-27T04:02:51;16.40;;;5.18;;
23720;SDS011;42950;52.134;5.578;2023-05-27T04:05:20;23.15;;;5.38;;
23720;SDS011;42950;52.134;5.578;2023-05-27T04:07:45;19.60;;;5.65;;
23720;SDS011;42950;52.134;5.578;2023-05-27T04:10:11;19.50;;;5.32;;
23720;SDS011;42950;52.134;5.578;2023-05-27T04:12:38;15.20;;;6.22;;
23720;SDS011;42950;52.134;5.578;2023-05-27T04:15:05;20.65;;;5.57;;
23720;SDS011;42950;52.134;5.578;2023-05-27T04:17:32;21.98;;;5.68;;
23720;SDS011;42950;52.134;5.578;2023-05-27T04:19:57;21.33;;;5.45;;
23720;SDS011;42950;52.134;5.578;2023-05-27T04:22:24;22.90;;;6.15;;
23720;SDS011;42950;52.134;5.578;2023-05-27T04:24:52;18.17;;;5.18;;
23720;SDS011;42950;52.134;5.578;2023-05-27T04:27:18;20.35;;;5.53;;
23720;SDS011;42950;52.134;5.578;2023-05-27T04:29:44;22.77;;;6.05;;
23720;SDS011;42950;52.134;5.578;2023-05-27T04:32:11;18.10;;;5.45;;
23720;SDS011;42950;52.134;5.578;2023-05-27T04:34:37;21.08;;;5.93;;
23720;SDS011;42950;52.134;5.578;2023-05-27T04:37:06;17.83;;;6.10;;
23720;SDS011;42950;52.134;5.578;2023-05-27T04:39:34;16.63;;;5.82;;
23720;SDS011;42950;52.134;5.578;2023-05-27T04:42:00;17.63;;;5.60;;
23720;SDS011;42950;52.134;5.578;2023-05-27T04:44:27;19.10;;;6.00;;
23720;SDS011;42950;52.134;5.578;2023-05-27T04:46:53;19.70;;;6.05;;
23720;SDS011;42950;52.134;5.578;2023-05-27T04:49:22;22.42;;;5.75;;
23720;SDS011;42950;52.134;5.578;2023-05-27T04:51:47;22.20;;;5.80;;
23720;SDS011;42950;52.134;5.578;2023-05-27T04:54:13;19.73;;;5.80;;
23720;SDS011;42950;52.134;5.578;2023-05-27T04:56:39;16.13;;;5.75;;
23720;SDS011;42950;52.134;5.578;2023-05-27T04:59:05;13.55;;;5.47;;
23720;SDS011;42950;52.134;5.578;2023-05-27T05:01:31;25.30;;;6.60;;
23720;SDS011;42950;52.134;5.578;2023-05-27T05:04:14;17.30;;;5.25;;
23720;SDS011;42950;52.134;5.578;2023-05-27T05:06:40;24.83;;;6.25;;
23720;SDS011;42950;52.134;5.578;2023-05-27T05:09:06;17.92;;;6.00;;
23720;SDS011;42950;52.134;5.578;2023-05-27T05:11:34;19.70;;;5.65;;
23720;SDS011;42950;52.134;5.578;2023-05-27T05:14:00;18.88;;;5.80;;
23720;SDS011;42950;52.134;5.578;2023-05-27T05:16:26;23.45;;;6.20;;
23720;SDS011;42950;52.134;5.578;2023-05-27T05:18:51;22.58;;;6.03;;
23720;SDS011;42950;52.134;5.578;2023-05-27T05:21:17;17.08;;;5.93;;
23720;SDS011;42950;52.134;5.578;2023-05-27T05:23:42;23.05;;;5.90;;
23720;SDS011;42950;52.134;5.578;2023-05-27T05:26:08;28.73;;;6.47;;
23720;SDS011;42950;52.134;5.578;2023-05-27T05:28:34;24.08;;;5.95;;
23720;SDS011;42950;52.134;5.578;2023-05-27T05:31:00;18.15;;;5.47;;
23720;SDS011;42950;52.134;5.578;2023-05-27T05:33:26;22.77;;;5.95;;
23720;SDS011;42950;52.134;5.578;2023-05-27T05:35:51;22.85;;;5.93;;
23720;SDS011;42950;52.134;5.578;2023-05-27T05:38:17;19.42;;;5.82;;
23720;SDS011;42950;52.134;5.578;2023-05-27T05:40:43;15.70;;;5.55;;
23720;SDS011;42950;52.134;5.578;2023-05-27T05:43:13;24.65;;;6.13;;
23720;SDS011;42950;52.134;5.578;2023-05-27T05:45:39;21.35;;;5.75;;
23720;SDS011;42950;52.134;5.578;2023-05-27T05:48:04;20.23;;;5.88;;
23720;SDS011;42950;52.134;5.578;2023-05-27T05:50:30;16.95;;;5.25;;
23720;SDS011;42950;52.134;5.578;2023-05-27T05:52:57;22.23;;;5.93;;
23720;SDS011;42950;52.134;5.578;2023-05-27T05:55:23;14.98;;;5.82;;
23720;SDS011;42950;52.134;5.578;2023-05-27T05:57:48;19.45;;;5.50;;
23720;SDS011;42950;52.134;5.578;2023-05-27T06:00:15;19.17;;;5.63;;
23720;SDS011;42950;52.134;5.578;2023-05-27T06:02:41;21.83;;;5.88;;
23720;SDS011;42950;52.134;5.578;2023-05-27T06:05:07;25.48;;;6.18;;
23720;SDS011;42950;52.134;5.578;2023-05-27T06:07:32;17.25;;;5.20;;
23720;SDS011;42950;52.134;5.578;2023-05-27T06:09:58;24.50;;;6.25;;
23720;SDS011;42950;52.134;5.578;2023-05-27T06:12:24;20.40;;;5.43;;
23720;SDS011;42950;52.134;5.578;2023-05-27T06:14:50;24.05;;;6.03;;
23720;SDS011;42950;52.134;5.578;2023-05-27T06:17:15;19.05;;;5.97;;
23720;SDS011;42950;52.134;5.578;2023-05-27T06:19:41;20.63;;;5.40;;
23720;SDS011;42950;52.134;5.578;2023-05-27T06:22:07;19.65;;;6.45;;
23720;SDS011;42950;52.134;5.578;2023-05-27T06:24:32;17.33;;;5.50;;
23720;SDS011;42950;52.134;5.578;2023-05-27T06:26:58;25.55;;;5.82;;
23720;SDS011;42950;52.134;5.578;2023-05-27T06:29:23;24.13;;;5.40;;
23720;SDS011;42950;52.134;5.578;2023-05-27T06:31:49;17.30;;;5.40;;
23720;SDS011;42950;52.134;5.578;2023-05-27T06:34:15;23.58;;;5.55;;
23720;SDS011;42950;52.134;5.578;2023-05-27T06:36:41;22.05;;;5.85;;
23720;SDS011;42950;52.134;5.578;2023-05-27T06:39:06;25.70;;;5.55;;
23720;SDS011;42950;52.134;5.578;2023-05-27T06:41:32;20.77;;;5.70;;
23720;SDS011;42950;52.134;5.578;2023-05-27T06:43:57;17.15;;;5.38;;
23720;SDS011;42950;52.134;5.578;2023-05-27T06:46:23;22.65;;;5.45;;
23720;SDS011;42950;52.134;5.578;2023-05-27T06:48:48;19.58;;;5.15;;
23720;SDS011;42950;52.134;5.578;2023-05-27T06:51:14;22.02;;;5.32;;
23720;SDS011;42950;52.134;5.578;2023-05-27T06:53:40;22.80;;;5.53;;
23720;SDS011;42950;52.134;5.578;2023-05-27T06:56:06;19.60;;;5.22;;
23720;SDS011;42950;52.134;5.578;2023-05-27T06:58:31;17.15;;;5.22;;
23720;SDS011;42950;52.134;5.578;2023-05-27T07:00:57;24.00;;;6.32;;
23720;SDS011;42950;52.134;5.578;2023-05-27T07:03:23;15.63;;;5.32;;
23720;SDS011;42950;52.134;5.578;2023-05-27T07:05:48;17.08;;;5.13;;
23720;SDS011;42950;52.134;5.578;2023-05-27T07:08:14;19.58;;;4.95;;
23720;SDS011;42950;52.134;5.578;2023-05-27T07:10:40;19.17;;;5.78;;
23720;SDS011;42950;52.134;5.578;2023-05-27T07:13:05;19.85;;;4.90;;
23720;SDS011;42950;52.134;5.578;2023-05-27T07:15:31;14.77;;;4.65;;
23720;SDS011;42950;52.134;5.578;2023-05-27T07:17:57;16.58;;;5.32;;
23720;SDS011;42950;52.134;5.578;2023-05-27T07:20:22;14.43;;;4.78;;
23720;SDS011;42950;52.134;5.578;2023-05-27T07:22:48;25.23;;;5.63;;
23720;SDS011;42950;52.134;5.578;2023-05-27T07:25:13;22.92;;;5.13;;
23720;SDS011;42950;52.134;5.578;2023-05-27T07:27:39;24.85;;;6.18;;
23720;SDS011;42950;52.134;5.578;2023-05-27T07:30:05;16.63;;;5.20;;
23720;SDS011;42950;52.134;5.578;2023-05-27T07:32:31;16.13;;;5.13;;
23720;SDS011;42950;52.134;5.578;2023-05-27T07:34:57;16.83;;;4.63;;
23720;SDS011;42950;52.134;5.578;2023-05-27T07:37:23;14.25;;;4.57;;
23720;SDS011;42950;52.134;5.578;2023-05-27T07:39:51;22.17;;;6.10;;
23720;SDS011;42950;52.134;5.578;2023-05-27T07:42:16;18.15;;;5.10;;
23720;SDS011;42950;52.134;5.578;2023-05-27T07:44:42;20.05;;;5.78;;
23720;SDS011;42950;52.134;5.578;2023-05-27T07:47:08;17.42;;;5.38;;
23720;SDS011;42950;52.134;5.578;2023-05-27T07:49:33;17.02;;;4.95;;
23720;SDS011;42950;52.134;5.578;2023-05-27T07:51:59;21.67;;;5.43;;
23720;SDS011;42950;52.134;5.578;2023-05-27T07:54:25;17.25;;;5.30;;
23720;SDS011;42950;52.134;5.578;2023-05-27T07:56:51;16.90;;;4.50;;
23720;SDS011;42950;52.134;5.578;2023-05-27T07:59:17;18.65;;;4.75;;
23720;SDS011;42950;52.134;5.578;2023-05-27T08:01:43;15.73;;;4.88;;
23720;SDS011;42950;52.134;5.578;2023-05-27T08:04:08;19.90;;;5.60;;
23720;SDS011;42950;52.134;5.578;2023-05-27T08:06:34;16.02;;;5.22;;
23720;SDS011;42950;52.134;5.578;2023-05-27T08:09:00;21.27;;;5.50;;
23720;SDS011;42950;52.134;5.578;2023-05-27T08:11:26;16.33;;;4.55;;
23720;SDS011;42950;52.134;5.578;2023-05-27T08:13:52;19.25;;;4.80;;
23720;SDS011;42950;52.134;5.578;2023-05-27T08:16:17;17.42;;;5.25;;
23720;SDS011;42950;52.134;5.578;2023-05-27T08:18:43;18.88;;;4.70;;
23720;SDS011;42950;52.134;5.578;2023-05-27T08:21:08;20.15;;;5.00;;
23720;SDS011;42950;52.134;5.578;2023-05-27T08:23:35;19.35;;;5.40;;
23720;SDS011;42950;52.134;5.578;2023-05-27T08:26:01;15.98;;;4.60;;
23720;SDS011;42950;52.134;5.578;2023-05-27T08:28:26;14.45;;;4.93;;
23720;SDS011;42950;52.134;5.578;2023-05-27T08:30:52;19.10;;;4.93;;
23720;SDS011;42950;52.134;5.578;2023-05-27T08:33:18;17.25;;;5.38;;
23720;SDS011;42950;52.134;5.578;2023-05-27T08:35:43;19.27;;;5.13;;
23720;SDS011;42950;52.134;5.578;2023-05-27T08:38:09;17.83;;;5.28;;
23720;SDS011;42950;52.134;5.578;2023-05-27T08:40:35;13.63;;;4.88;;
23720;SDS011;42950;52.134;5.578;2023-05-27T08:43:00;17.05;;;4.65;;
23720;SDS011;42950;52.134;5.578;2023-05-27T08:45:27;18.20;;;4.75;;
23720;SDS011;42950;52.134;5.578;2023-05-27T08:47:53;18.73;;;5.05;;
23720;SDS011;42950;52.134;5.578;2023-05-27T08:50:18;16.02;;;5.43;;
23720;SDS011;42950;52.134;5.578;2023-05-27T08:52:45;13.60;;;4.32;;
23720;SDS011;42950;52.134;5.578;2023-05-27T08:55:14;17.38;;;5.10;;
23720;SDS011;42950;52.134;5.578;2023-05-27T08:57:43;15.30;;;5.15;;
23720;SDS011;42950;52.134;5.578;2023-05-27T09:00:11;18.10;;;5.32;;
23720;SDS011;42950;52.134;5.578;2023-05-27T09:02:39;17.25;;;5.30;;
23720;SDS011;42950;52.134;5.578;2023-05-27T09:05:05;21.33;;;5.38;;
23720;SDS011;42950;52.134;5.578;2023-05-27T09:07:33;18.10;;;5.20;;
23720;SDS011;42950;52.134;5.578;2023-05-27T09:09:59;15.90;;;4.78;;
23720;SDS011;42950;52.134;5.578;2023-05-27T09:12:27;16.33;;;4.90;;
23720;SDS011;42950;52.134;5.578;2023-05-27T09:14:53;19.52;;;5.28;;
23720;SDS011;42950;52.134;5.578;2023-05-27T09:17:21;16.50;;;4.88;;
23720;SDS011;42950;52.134;5.578;2023-05-27T09:19:49;17.83;;;4.72;;
23720;SDS011;42950;52.134;5.578;2023-05-27T09:22:23;21.90;;;5.18;;
23720;SDS011;42950;52.134;5.578;2023-05-27T09:24:53;19.05;;;4.93;;
23720;SDS011;42950;52.134;5.578;2023-05-27T09:27:19;16.95;;;4.82;;
23720;SDS011;42950;52.134;5.578;2023-05-27T09:29:49;19.35;;;5.45;;
23720;SDS011;42950;52.134;5.578;2023-05-27T09:32:25;13.85;;;4.43;;
23720;SDS011;42950;52.134;5.578;2023-05-27T09:34:57;15.43;;;4.75;;
23720;SDS011;42950;52.134;5.578;2023-05-27T09:37:27;14.98;;;4.90;;
23720;SDS011;42950;52.134;5.578;2023-05-27T09:42:53;16.08;;;4.80;;
23720;SDS011;42950;52.134;5.578;2023-05-27T09:45:19;17.50;;;4.93;;
23720;SDS011;42950;52.134;5.578;2023-05-27T09:47:52;17.90;;;4.88;;
23720;SDS011;42950;52.134;5.578;2023-05-27T09:50:18;15.45;;;4.43;;
23720;SDS011;42950;52.134;5.578;2023-05-27T09:52:45;13.20;;;4.53;;
23720;SDS011;42950;52.134;5.578;2023-05-27T09:55:13;12.45;;;4.82;;
23720;SDS011;42950;52.134;5.578;2023-05-27T09:57:39;13.68;;;5.30;;
23720;SDS011;42950;52.134;5.578;2023-05-27T10:00:09;14.07;;;5.20;;
23720;SDS011;42950;52.134;5.578;2023-05-27T10:02:42;16.65;;;4.40;;
23720;SDS011;42950;52.134;5.578;2023-05-27T10:05:11;13.77;;;4.88;;
23720;SDS011;42950;52.134;5.578;2023-05-27T10:07:39;11.68;;;4.30;;
23720;SDS011;42950;52.134;5.578;2023-05-27T10:10:06;15.57;;;4.72;;
23720;SDS011;42950;52.134;5.578;2023-05-27T10:12:35;14.77;;;4.75;;
23720;SDS011;42950;52.134;5.578;2023-05-27T10:15:02;13.05;;;4.22;;
23720;SDS011;42950;52.134;5.578;2023-05-27T10:17:39;14.15;;;4.30;;
23720;SDS011;42950;52.134;5.578;2023-05-27T10:20:11;13.27;;;4.38;;
23720;SDS011;42950;52.134;5.578;2023-05-27T10:22:45;11.60;;;4.47;;
23720;SDS011;42950;52.134;5.578;2023-05-27T10:25:14;14.63;;;5.03;;
23720;SDS011;42950;52.134;5.578;2023-05-27T10:27:43;14.80;;;4.50;;
23720;SDS011;42950;52.134;5.578;2023-05-27T10:30:10;15.75;;;4.45;;
23720;SDS011;42950;52.134;5.578;2023-05-27T10:32:49;12.85;;;4.18;;
23720;SDS011;42950;52.134;5.578;2023-05-27T10:35:16;12.63;;;3.97;;
23720;SDS011;42950;52.134;5.578;2023-05-27T10:37:42;16.15;;;4.72;;
23720;SDS011;42950;52.134;5.578;2023-05-27T10:40:08;13.15;;;4.30;;
23720;SDS011;42950;52.134;5.578;2023-05-27T10:42:35;14.85;;;4.47;;
23720;SDS011;42950;52.134;5.578;2023-05-27T10:45:04;12.90;;;4.25;;
23720;SDS011;42950;52.134;5.578;2023-05-27T10:47:34;19.58;;;4.72;;
23720;SDS011;42950;52.134;5.578;2023-05-27T10:50:08;11.93;;;4.55;;
23720;SDS011;42950;52.134;5.578;2023-05-27T10:52:38;15.63;;;4.68;;
23720;SDS011;42950;52.134;5.578;2023-05-27T10:55:04;12.75;;;4.25;;
23720;SDS011;42950;52.134;5.578;2023-05-27T10:57:31;13.45;;;4.60;;
23720;SDS011;42950;52.134;5.578;2023-05-27T11:00:00;12.02;;;4.25;;
23720;SDS011;42950;52.134;5.578;2023-05-27T11:02:29;12.70;;;4.97;;
23720;SDS011;42950;52.134;5.578;2023-05-27T11:05:07;15.18;;;4.70;;
23720;SDS011;42950;52.134;5.578;2023-05-27T11:07:36;14.27;;;4.53;;
23720;SDS011;42950;52.134;5.578;2023-05-27T11:10:06;12.93;;;4.60;;
23720;SDS011;42950;52.134;5.578;2023-05-27T11:12:35;16.42;;;4.90;;
23720;SDS011;42950;52.134;5.578;2023-05-27T11:15:01;14.23;;;4.82;;
23720;SDS011;42950;52.134;5.578;2023-05-27T11:17:27;12.15;;;4.15;;
23720;SDS011;42950;52.134;5.578;2023-05-27T11:19:54;13.93;;;4.35;;
23720;SDS011;42950;52.134;5.578;2023-05-27T11:22:20;14.82;;;4.80;;
23720;SDS011;42950;52.134;5.578;2023-05-27T11:24:59;10.45;;;4.18;;
23720;SDS011;42950;52.134;5.578;2023-05-27T11:27:32;11.32;;;4.20;;
23720;SDS011;42950;52.134;5.578;2023-05-27T11:30:08;13.23;;;4.63;;
23720;SDS011;42950;52.134;5.578;2023-05-27T11:32:37;10.68;;;3.83;;
23720;SDS011;42950;52.134;5.578;2023-05-27T11:35:04;10.90;;;3.83;;
23720;SDS011;42950;52.134;5.578;2023-05-27T11:37:37;11.05;;;3.90;;
23720;SDS011;42950;52.134;5.578;2023-05-27T11:40:02;12.73;;;4.28;;
23720;SDS011;42950;52.134;5.578;2023-05-27T11:42:36;10.60;;;4.43;;
23720;SDS011;42950;52.134;5.578;2023-05-27T11:45:01;13.90;;;3.97;;
23720;SDS011;42950;52.134;5.578;2023-05-27T11:47:31;12.57;;;4.25;;
23720;SDS011;42950;52.134;5.578;2023-05-27T11:49:57;11.25;;;3.67;;
23720;SDS011;42950;52.134;5.578;2023-05-27T11:52:24;10.65;;;3.90;;
23720;SDS011;42950;52.134;5.578;2023-05-27T11:54:50;9.88;;;3.70;;
23720;SDS011;42950;52.134;5.578;2023-05-27T11:57:19;13.82;;;4.40;;
23720;SDS011;42950;52.134;5.578;2023-05-27T11:59:44;12.82;;;4.38;;
23720;SDS011;42950;52.134;5.578;2023-05-27T12:02:10;14.88;;;4.57;;
23720;SDS011;42950;52.134;5.578;2023-05-27T12:04:36;10.70;;;4.18;;
23720;SDS011;42950;52.134;5.578;2023-05-27T12:07:01;9.02;;;3.78;;
23720;SDS011;42950;52.134;5.578;2023-05-27T12:09:27;7.97;;;3.30;;
23720;SDS011;42950;52.134;5.578;2023-05-27T12:11:53;10.23;;;3.97;;
23720;SDS011;42950;52.134;5.578;2023-05-27T12:14:20;11.68;;;4.00;;
23720;SDS011;42950;52.134;5.578;2023-05-27T12:16:46;9.30;;;3.67;;
23720;SDS011;42950;52.134;5.578;2023-05-27T12:19:11;12.00;;;3.92;;
23720;SDS011;42950;52.134;5.578;2023-05-27T12:21:37;9.70;;;3.67;;
23720;SDS011;42950;52.134;5.578;2023-05-27T12:24:03;10.07;;;4.20;;
23720;SDS011;42950;52.134;5.578;2023-05-27T12:26:29;11.80;;;4.30;;
23720;SDS011;42950;52.134;5.578;2023-05-27T12:28:55;9.75;;;3.97;;
23720;SDS011;42950;52.134;5.578;2023-05-27T12:31:21;13.90;;;4.28;;
23720;SDS011;42950;52.134;5.578;2023-05-27T12:33:48;16.13;;;4.60;;
23720;SDS011;42950;52.134;5.578;2023-05-27T12:36:14;12.23;;;4.30;;
23720;SDS011;42950;52.134;5.578;2023-05-27T12:38:39;11.82;;;4.43;;
23720;SDS011;42950;52.134;5.578;2023-05-27T12:41:05;13.07;;;4.90;;
23720;SDS011;42950;52.134;5.578;2023-05-27T12:43:31;12.18;;;4.20;;
23720;SDS011;42950;52.134;5.578;2023-05-27T12:45:57;11.85;;;3.78;;
23720;SDS011;42950;52.134;5.578;2023-05-27T12:48:23;14.55;;;4.13;;
23720;SDS011;42950;52.134;5.578;2023-05-27T12:50:49;12.15;;;4.45;;
23720;SDS011;42950;52.134;5.578;2023-05-27T12:53:15;14.18;;;4.20;;
23720;SDS011;42950;52.134;5.578;2023-05-27T12:55:42;8.18;;;4.00;;
23720;SDS011;42950;52.134;5.578;2023-05-27T12:58:08;13.63;;;4.38;;
23720;SDS011;42950;52.134;5.578;2023-05-27T13:00:34;11.43;;;3.80;;
23720;SDS011;42950;52.134;5.578;2023-05-27T13:02:59;8.82;;;3.47;;
23720;SDS011;42950;52.134;5.578;2023-05-27T13:05:25;9.85;;;3.88;;
23720;SDS011;42950;52.134;5.578;2023-05-27T13:07:54;11.90;;;3.70;;
23720;SDS011;42950;52.134;5.578;2023-05-27T13:10:22;11.10;;;4.07;;
23720;SDS011;42950;52.134;5.578;2023-05-27T13:12:48;9.85;;;3.75;;
23720;SDS011;42950;52.134;5.578;2023-05-27T13:15:14;12.30;;;4.20;;
23720;SDS011;42950;52.134;5.578;2023-05-27T13:17:41;15.30;;;4.18;;
23720;SDS011;42950;52.134;5.578;2023-05-27T13:20:07;13.38;;;4.50;;
23720;SDS011;42950;52.134;5.578;2023-05-27T13:22:34;12.25;;;4.10;;
23720;SDS011;42950;52.134;5.578;2023-05-27T13:24:59;10.80;;;3.90;;
23720;SDS011;42950;52.134;5.578;2023-05-27T13:27:26;12.02;;;4.45;;
23720;SDS011;42950;52.134;5.578;2023-05-27T13:29:52;13.45;;;4.53;;
23720;SDS011;42950;52.134;5.578;2023-05-27T13:32:17;10.85;;;4.50;;
23720;SDS011;42950;52.134;5.578;2023-05-27T13:34:43;13.40;;;4.32;;
23720;SDS011;42950;52.134;5.578;2023-05-27T13:37:09;14.57;;;4.80;;
23720;SDS011;42950;52.134;5.578;2023-05-27T13:39:34;12.98;;;4.32;;
23720;SDS011;42950;52.134;5.578;2023-05-27T13:42:00;10.02;;;4.05;;
23720;SDS011;42950;52.134;5.578;2023-05-27T13:44:26;10.73;;;4.13;;
23720;SDS011;42950;52.134;5.578;2023-05-27T13:46:51;9.15;;;4.05;;
23720;SDS011;42950;52.134;5.578;2023-05-27T13:49:17;13.82;;;3.90;;
23720;SDS011;42950;52.134;5.578;2023-05-27T13:51:43;10.63;;;4.00;;
23720;SDS011;42950;52.134;5.578;2023-05-27T13:54:09;12.38;;;4.30;;
23720;SDS011;42950;52.134;5.578;2023-05-27T13:56:35;10.23;;;4.07;;
23720;SDS011;42950;52.134;5.578;2023-05-27T13:59:01;10.20;;;3.75;;
23720;SDS011;42950;52.134;5.578;2023-05-27T14:01:30;12.20;;;4.20;;
23720;SDS011;42950;52.134;5.578;2023-05-27T14:03:58;13.52;;;4.70;;
23720;SDS011;42950;52.134;5.578;2023-05-27T14:06:23;14.77;;;4.20;;
23720;SDS011;42950;52.134;5.578;2023-05-27T14:08:49;14.45;;;4.10;;
23720;SDS011;42950;52.134;5.578;2023-05-27T14:11:15;14.77;;;3.95;;
23720;SDS011;42950;52.134;5.578;2023-05-27T14:13:41;12.63;;;3.88;;
23720;SDS011;42950;52.134;5.578;2023-05-27T14:16:06;14.25;;;4.45;;
23720;SDS011;42950;52.134;5.578;2023-05-27T14:18:32;12.70;;;3.65;;
23720;SDS011;42950;52.134;5.578;2023-05-27T14:20:57;13.82;;;3.92;;
23720;SDS011;42950;52.134;5.578;2023-05-27T14:23:23;9.90;;;3.88;;
23720;SDS011;42950;52.134;5.578;2023-05-27T14:25:48;11.90;;;4.03;;
23720;SDS011;42950;52.134;5.578;2023-05-27T14:28:14;8.80;;;3.80;;
23720;SDS011;42950;52.134;5.578;2023-05-27T14:30:40;11.57;;;4.55;;
23720;SDS011;42950;52.134;5.578;2023-05-27T14:33:06;14.38;;;4.30;;
23720;SDS011;42950;52.134;5.578;2023-05-27T14:35:33;11.63;;;3.88;;
23720;SDS011;42950;52.134;5.578;2023-05-27T14:38:02;14.13;;;5.65;;
23720;SDS011;42950;52.134;5.578;2023-05-27T14:40:28;20.00;;;10.65;;